KLBL/LBL METAR and TAF weather

Enter ICAO airport designator
Station Type Date Time Source
KLBL METAR 2020/04/07 16:56 UTC NOAA

KLBL 071656Z AUTO 01006KT 10SM CLR 24/01 A2990 RMK AO2 SLP100 T02390006


Station Type Date Time Source
KLBL Decoded METAR 2020/04/07 16:56 UTC NOAA

Liberal, Liberal Municipal Airport, KS, United States (KLBL) 37-03N 100-58W
Apr 07, 2020 - 12:56 PM EDT / 2020.04.07 1656 UTC
Wind: from the N (010 degrees) at 7 MPH (6 KT):0
Visibility: 10 mile(s):0
Sky conditions: clear
Temperature: 75.0 F (23.9 C)
Dew Point: 33.1 F (0.6 C)
Relative Humidity: 21%
Pressure (altimeter): 29.9 in. Hg (1012 hPa)
ob: KLBL 071656Z AUTO 01006KT 10SM CLR 24/01 A2990 RMK AO2 SLP100 T02390006
cycle: 17

Station Type Date Time Source
KLBL TAF 2020/04/07 18:21 UTC NOAA

TAF KLBL 071720Z 0718/0818 35013KT P6SM SKC
FM072100 02011KT P6SM SKC
FM080000 05009KT P6SM SKC

Example: see airport list